sensor_id;sensor_type;location;lat;lon;timestamp;P1;durP1;ratioP1;P2;durP2;ratioP2
81903;SDS011;71370;-33.792;151.032;2023-08-17T00:00:26;4.60;;;2.70;;
81903;SDS011;71370;-33.792;151.032;2023-08-17T00:01:33;5.40;;;2.40;;
81903;SDS011;71370;-33.792;151.032;2023-08-17T00:02:40;5.40;;;2.50;;
81903;SDS011;71370;-33.792;151.032;2023-08-17T00:03:48;5.40;;;2.40;;
81903;SDS011;71370;-33.792;151.032;2023-08-17T00:04:54;4.40;;;2.40;;
81903;SDS011;71370;-33.792;151.032;2023-08-17T00:06:01;5.50;;;2.20;;
81903;SDS011;71370;-33.792;151.032;2023-08-17T00:07:08;5.90;;;2.80;;
81903;SDS011;71370;-33.792;151.032;2023-08-17T00:08:15;5.40;;;2.80;;
81903;SDS011;71370;-33.792;151.032;2023-08-17T00:09:22;4.20;;;2.60;;
81903;SDS011;71370;-33.792;151.032;2023-08-17T00:10:30;5.10;;;2.40;;
81903;SDS011;71370;-33.792;151.032;2023-08-17T00:11:37;4.30;;;2.30;;
81903;SDS011;71370;-33.792;151.032;2023-08-17T00:12:44;5.10;;;2.40;;
81903;SDS011;71370;-33.792;151.032;2023-08-17T00:13:51;3.60;;;2.20;;
81903;SDS011;71370;-33.792;151.032;2023-08-17T00:14:58;5.60;;;2.60;;
81903;SDS011;71370;-33.792;151.032;2023-08-17T00:16:04;4.90;;;3.40;;
81903;SDS011;71370;-33.792;151.032;2023-08-17T00:17:11;4.60;;;2.50;;
81903;SDS011;71370;-33.792;151.032;2023-08-17T00:18:18;4.90;;;2.50;;
81903;SDS011;71370;-33.792;151.032;2023-08-17T00:19:28;5.40;;;2.00;;
81903;SDS011;71370;-33.792;151.032;2023-08-17T00:20:35;4.00;;;1.90;;
81903;SDS011;71370;-33.792;151.032;2023-08-17T00:21:43;5.40;;;2.10;;
81903;SDS011;71370;-33.792;151.032;2023-08-17T00:22:51;3.80;;;2.10;;
81903;SDS011;71370;-33.792;151.032;2023-08-17T00:23:57;3.60;;;1.40;;
81903;SDS011;71370;-33.792;151.032;2023-08-17T00:25:05;3.40;;;1.40;;
81903;SDS011;71370;-33.792;151.032;2023-08-17T00:26:12;3.60;;;1.80;;
81903;SDS011;71370;-33.792;151.032;2023-08-17T00:27:19;3.70;;;1.40;;
81903;SDS011;71370;-33.792;151.032;2023-08-17T00:28:26;4.40;;;2.60;;
81903;SDS011;71370;-33.792;151.032;2023-08-17T00:29:33;3.50;;;1.30;;
81903;SDS011;71370;-33.792;151.032;2023-08-17T00:30:41;3.50;;;1.40;;
81903;SDS011;71370;-33.792;151.032;2023-08-17T00:31:48;3.40;;;1.20;;
81903;SDS011;71370;-33.792;151.032;2023-08-17T00:32:55;3.60;;;1.60;;
81903;SDS011;71370;-33.792;151.032;2023-08-17T00:34:02;5.40;;;1.80;;
81903;SDS011;71370;-33.792;151.032;2023-08-17T00:35:09;5.60;;;2.30;;
81903;SDS011;71370;-33.792;151.032;2023-08-17T00:36:16;3.00;;;1.50;;
81903;SDS011;71370;-33.792;151.032;2023-08-17T00:37:23;5.20;;;1.60;;
81903;SDS011;71370;-33.792;151.032;2023-08-17T00:38:30;3.60;;;1.30;;
81903;SDS011;71370;-33.792;151.032;2023-08-17T00:39:37;3.40;;;1.80;;
81903;SDS011;71370;-33.792;151.032;2023-08-17T00:40:45;3.30;;;1.60;;
81903;SDS011;71370;-33.792;151.032;2023-08-17T00:41:51;3.90;;;1.30;;
81903;SDS011;71370;-33.792;151.032;2023-08-17T00:42:58;4.20;;;1.50;;
81903;SDS011;71370;-33.792;151.032;2023-08-17T00:44:06;3.60;;;1.60;;
81903;SDS011;71370;-33.792;151.032;2023-08-17T00:45:13;3.70;;;1.20;;
81903;SDS011;71370;-33.792;151.032;2023-08-17T00:46:20;3.70;;;1.50;;
81903;SDS011;71370;-33.792;151.032;2023-08-17T00:47:28;2.80;;;1.10;;
81903;SDS011;71370;-33.792;151.032;2023-08-17T00:48:35;3.30;;;1.30;;
81903;SDS011;71370;-33.792;151.032;2023-08-17T00:49:42;2.40;;;1.30;;
81903;SDS011;71370;-33.792;151.032;2023-08-17T00:50:50;2.70;;;1.10;;
81903;SDS011;71370;-33.792;151.032;2023-08-17T00:51:58;2.90;;;1.10;;
81903;SDS011;71370;-33.792;151.032;2023-08-17T00:53:06;2.80;;;1.20;;
81903;SDS011;71370;-33.792;151.032;2023-08-17T00:54:20;4.90;;;1.50;;
81903;SDS011;71370;-33.792;151.032;2023-08-17T00:55:32;5.30;;;1.30;;
81903;SDS011;71370;-33.792;151.032;2023-08-17T00:56:40;4.40;;;1.60;;
81903;SDS011;71370;-33.792;151.032;2023-08-17T00:57:47;3.00;;;1.30;;
81903;SDS011;71370;-33.792;151.032;2023-08-17T00:58:55;4.50;;;1.10;;
81903;SDS011;71370;-33.792;151.032;2023-08-17T01:00:02;3.20;;;1.40;;
81903;SDS011;71370;-33.792;151.032;2023-08-17T01:01:10;3.40;;;1.10;;
81903;SDS011;71370;-33.792;151.032;2023-08-17T01:02:18;3.20;;;1.50;;
81903;SDS011;71370;-33.792;151.032;2023-08-17T01:03:26;2.40;;;1.10;;
81903;SDS011;71370;-33.792;151.032;2023-08-17T01:04:37;3.00;;;1.00;;
81903;SDS011;71370;-33.792;151.032;2023-08-17T01:05:44;2.80;;;1.00;;
81903;SDS011;71370;-33.792;151.032;2023-08-17T01:06:51;3.20;;;1.60;;
81903;SDS011;71370;-33.792;151.032;2023-08-17T01:07:58;4.10;;;0.90;;
81903;SDS011;71370;-33.792;151.032;2023-08-17T01:09:05;2.90;;;0.90;;
81903;SDS011;71370;-33.792;151.032;2023-08-17T01:10:14;2.70;;;1.00;;
81903;SDS011;71370;-33.792;151.032;2023-08-17T01:12:41;3.40;;;1.20;;
81903;SDS011;71370;-33.792;151.032;2023-08-17T01:14:09;2.80;;;1.00;;
81903;SDS011;71370;-33.792;151.032;2023-08-17T01:16:50;3.20;;;1.10;;
81903;SDS011;71370;-33.792;151.032;2023-08-17T01:18:29;3.40;;;1.20;;
81903;SDS011;71370;-33.792;151.032;2023-08-17T01:19:41;3.30;;;0.90;;
81903;SDS011;71370;-33.792;151.032;2023-08-17T01:20:51;3.70;;;1.70;;
81903;SDS011;71370;-33.792;151.032;2023-08-17T01:22:07;3.10;;;1.40;;
81903;SDS011;71370;-33.792;151.032;2023-08-17T01:23:17;3.70;;;1.30;;
81903;SDS011;71370;-33.792;151.032;2023-08-17T01:24:24;2.90;;;1.30;;
81903;SDS011;71370;-33.792;151.032;2023-08-17T01:25:32;3.50;;;1.20;;
81903;SDS011;71370;-33.792;151.032;2023-08-17T01:26:42;2.70;;;1.00;;
81903;SDS011;71370;-33.792;151.032;2023-08-17T01:27:50;3.10;;;0.90;;
81903;SDS011;71370;-33.792;151.032;2023-08-17T01:28:56;2.30;;;0.80;;
81903;SDS011;71370;-33.792;151.032;2023-08-17T01:30:04;3.00;;;0.80;;
81903;SDS011;71370;-33.792;151.032;2023-08-17T01:31:12;4.00;;;0.90;;
81903;SDS011;71370;-33.792;151.032;2023-08-17T01:32:44;4.00;;;0.90;;
81903;SDS011;71370;-33.792;151.032;2023-08-17T01:33:58;2.80;;;1.10;;
81903;SDS011;71370;-33.792;151.032;2023-08-17T01:35:30;2.70;;;0.80;;
81903;SDS011;71370;-33.792;151.032;2023-08-17T01:36:52;2.10;;;0.70;;
81903;SDS011;71370;-33.792;151.032;2023-08-17T01:38:05;2.50;;;0.80;;
81903;SDS011;71370;-33.792;151.032;2023-08-17T01:39:15;3.20;;;0.80;;
81903;SDS011;71370;-33.792;151.032;2023-08-17T01:40:23;2.70;;;0.70;;
81903;SDS011;71370;-33.792;151.032;2023-08-17T01:41:34;3.10;;;0.70;;
81903;SDS011;71370;-33.792;151.032;2023-08-17T01:42:43;2.80;;;1.00;;
81903;SDS011;71370;-33.792;151.032;2023-08-17T01:43:50;3.40;;;1.60;;
81903;SDS011;71370;-33.792;151.032;2023-08-17T01:44:59;2.70;;;0.90;;
81903;SDS011;71370;-33.792;151.032;2023-08-17T01:46:06;2.30;;;0.90;;
81903;SDS011;71370;-33.792;151.032;2023-08-17T01:47:14;2.20;;;0.70;;
81903;SDS011;71370;-33.792;151.032;2023-08-17T01:48:21;2.30;;;0.70;;
81903;SDS011;71370;-33.792;151.032;2023-08-17T01:49:27;2.10;;;0.80;;
81903;SDS011;71370;-33.792;151.032;2023-08-17T01:50:34;2.00;;;0.70;;
81903;SDS011;71370;-33.792;151.032;2023-08-17T01:51:41;2.40;;;0.70;;
81903;SDS011;71370;-33.792;151.032;2023-08-17T01:52:48;2.40;;;0.90;;
81903;SDS011;71370;-33.792;151.032;2023-08-17T01:53:58;2.40;;;0.80;;
81903;SDS011;71370;-33.792;151.032;2023-08-17T01:55:05;2.30;;;1.30;;
81903;SDS011;71370;-33.792;151.032;2023-08-17T01:56:12;2.40;;;0.80;;
81903;SDS011;71370;-33.792;151.032;2023-08-17T01:57:19;2.60;;;1.20;;
81903;SDS011;71370;-33.792;151.032;2023-08-17T01:58:26;2.80;;;1.10;;
81903;SDS011;71370;-33.792;151.032;2023-08-17T01:59:33;2.60;;;1.10;;
81903;SDS011;71370;-33.792;151.032;2023-08-17T02:00:40;2.40;;;0.80;;
81903;SDS011;71370;-33.792;151.032;2023-08-17T02:01:47;2.60;;;0.80;;
81903;SDS011;71370;-33.792;151.032;2023-08-17T02:02:54;2.70;;;1.80;;
81903;SDS011;71370;-33.792;151.032;2023-08-17T02:04:01;3.60;;;1.30;;
81903;SDS011;71370;-33.792;151.032;2023-08-17T02:05:09;3.10;;;1.10;;
81903;SDS011;71370;-33.792;151.032;2023-08-17T02:06:16;2.90;;;1.00;;
81903;SDS011;71370;-33.792;151.032;2023-08-17T02:07:23;3.30;;;1.30;;
81903;SDS011;71370;-33.792;151.032;2023-08-17T02:08:30;2.20;;;0.90;;
81903;SDS011;71370;-33.792;151.032;2023-08-17T02:09:39;2.60;;;0.70;;
81903;SDS011;71370;-33.792;151.032;2023-08-17T02:10:46;2.50;;;0.90;;
81903;SDS011;71370;-33.792;151.032;2023-08-17T02:11:53;2.40;;;0.90;;
81903;SDS011;71370;-33.792;151.032;2023-08-17T02:13:00;2.70;;;0.80;;
81903;SDS011;71370;-33.792;151.032;2023-08-17T02:14:07;2.50;;;0.90;;
81903;SDS011;71370;-33.792;151.032;2023-08-17T02:15:13;2.50;;;1.00;;
81903;SDS011;71370;-33.792;151.032;2023-08-17T02:16:21;2.20;;;0.80;;
81903;SDS011;71370;-33.792;151.032;2023-08-17T02:17:28;1.70;;;0.60;;
81903;SDS011;71370;-33.792;151.032;2023-08-17T02:18:35;1.90;;;0.70;;
81903;SDS011;71370;-33.792;151.032;2023-08-17T02:19:43;2.30;;;0.80;;
81903;SDS011;71370;-33.792;151.032;2023-08-17T02:20:50;2.50;;;1.00;;
81903;SDS011;71370;-33.792;151.032;2023-08-17T02:21:56;1.60;;;0.70;;
81903;SDS011;71370;-33.792;151.032;2023-08-17T02:23:03;2.30;;;0.60;;
81903;SDS011;71370;-33.792;151.032;2023-08-17T02:24:10;2.80;;;0.70;;
81903;SDS011;71370;-33.792;151.032;2023-08-17T02:25:17;2.20;;;0.70;;
81903;SDS011;71370;-33.792;151.032;2023-08-17T02:26:24;2.40;;;0.70;;
81903;SDS011;71370;-33.792;151.032;2023-08-17T02:27:31;2.30;;;1.00;;
81903;SDS011;71370;-33.792;151.032;2023-08-17T02:28:38;3.10;;;0.60;;
81903;SDS011;71370;-33.792;151.032;2023-08-17T02:29:45;2.10;;;0.60;;
81903;SDS011;71370;-33.792;151.032;2023-08-17T02:30:58;1.90;;;0.50;;
81903;SDS011;71370;-33.792;151.032;2023-08-17T02:32:05;1.90;;;0.50;;
81903;SDS011;71370;-33.792;151.032;2023-08-17T02:33:12;2.20;;;0.60;;
81903;SDS011;71370;-33.792;151.032;2023-08-17T02:34:19;2.60;;;0.90;;
81903;SDS011;71370;-33.792;151.032;2023-08-17T02:35:26;1.80;;;0.60;;
81903;SDS011;71370;-33.792;151.032;2023-08-17T02:36:33;2.10;;;0.80;;
81903;SDS011;71370;-33.792;151.032;2023-08-17T02:37:39;2.60;;;0.60;;
81903;SDS011;71370;-33.792;151.032;2023-08-17T02:38:46;2.10;;;0.50;;
81903;SDS011;71370;-33.792;151.032;2023-08-17T02:39:53;1.50;;;0.40;;
81903;SDS011;71370;-33.792;151.032;2023-08-17T02:41:00;2.50;;;0.70;;
81903;SDS011;71370;-33.792;151.032;2023-08-17T02:42:07;1.70;;;0.60;;
81903;SDS011;71370;-33.792;151.032;2023-08-17T02:43:13;1.60;;;0.50;;
81903;SDS011;71370;-33.792;151.032;2023-08-17T02:44:20;1.70;;;0.60;;
81903;SDS011;71370;-33.792;151.032;2023-08-17T02:45:27;1.40;;;0.50;;
81903;SDS011;71370;-33.792;151.032;2023-08-17T02:46:34;2.30;;;0.60;;
81903;SDS011;71370;-33.792;151.032;2023-08-17T02:47:41;1.90;;;0.50;;
81903;SDS011;71370;-33.792;151.032;2023-08-17T02:48:48;2.30;;;0.60;;
81903;SDS011;71370;-33.792;151.032;2023-08-17T02:49:56;1.60;;;0.40;;
81903;SDS011;71370;-33.792;151.032;2023-08-17T02:51:03;2.60;;;0.50;;
81903;SDS011;71370;-33.792;151.032;2023-08-17T02:52:10;2.10;;;0.50;;
81903;SDS011;71370;-33.792;151.032;2023-08-17T02:53:17;3.10;;;0.50;;
81903;SDS011;71370;-33.792;151.032;2023-08-17T02:54:24;1.40;;;0.40;;
81903;SDS011;71370;-33.792;151.032;2023-08-17T02:55:31;1.70;;;0.60;;
81903;SDS011;71370;-33.792;151.032;2023-08-17T02:56:38;2.40;;;0.40;;
81903;SDS011;71370;-33.792;151.032;2023-08-17T02:57:45;1.60;;;0.40;;
81903;SDS011;71370;-33.792;151.032;2023-08-17T02:58:52;2.50;;;0.60;;
81903;SDS011;71370;-33.792;151.032;2023-08-17T02:59:59;2.40;;;0.90;;
81903;SDS011;71370;-33.792;151.032;2023-08-17T03:01:06;2.00;;;0.80;;
81903;SDS011;71370;-33.792;151.032;2023-08-17T03:02:13;2.10;;;0.40;;
81903;SDS011;71370;-33.792;151.032;2023-08-17T03:03:20;1.60;;;0.50;;
81903;SDS011;71370;-33.792;151.032;2023-08-17T03:04:27;1.70;;;0.40;;
81903;SDS011;71370;-33.792;151.032;2023-08-17T03:05:33;2.30;;;0.40;;
81903;SDS011;71370;-33.792;151.032;2023-08-17T03:06:40;1.90;;;0.60;;
81903;SDS011;71370;-33.792;151.032;2023-08-17T03:07:47;2.20;;;0.80;;
81903;SDS011;71370;-33.792;151.032;2023-08-17T03:08:54;1.70;;;0.30;;
81903;SDS011;71370;-33.792;151.032;2023-08-17T03:10:01;3.20;;;0.50;;
81903;SDS011;71370;-33.792;151.032;2023-08-17T03:11:08;2.10;;;0.40;;
81903;SDS011;71370;-33.792;151.032;2023-08-17T03:12:15;1.60;;;0.50;;
81903;SDS011;71370;-33.792;151.032;2023-08-17T03:13:22;1.80;;;0.50;;
81903;SDS011;71370;-33.792;151.032;2023-08-17T03:14:29;2.20;;;0.80;;
81903;SDS011;71370;-33.792;151.032;2023-08-17T03:15:36;1.40;;;0.50;;
81903;SDS011;71370;-33.792;151.032;2023-08-17T03:16:45;1.80;;;0.50;;
81903;SDS011;71370;-33.792;151.032;2023-08-17T03:17:52;2.10;;;0.30;;
81903;SDS011;71370;-33.792;151.032;2023-08-17T03:18:59;1.90;;;0.60;;
81903;SDS011;71370;-33.792;151.032;2023-08-17T03:20:06;2.20;;;0.70;;
81903;SDS011;71370;-33.792;151.032;2023-08-17T03:21:13;2.00;;;0.50;;
81903;SDS011;71370;-33.792;151.032;2023-08-17T03:22:21;1.40;;;0.50;;
81903;SDS011;71370;-33.792;151.032;2023-08-17T03:23:28;2.10;;;0.60;;
81903;SDS011;71370;-33.792;151.032;2023-08-17T03:24:35;2.40;;;0.60;;
81903;SDS011;71370;-33.792;151.032;2023-08-17T03:25:41;3.20;;;1.00;;
81903;SDS011;71370;-33.792;151.032;2023-08-17T03:26:48;1.50;;;0.60;;
81903;SDS011;71370;-33.792;151.032;2023-08-17T03:27:56;1.80;;;0.50;;
81903;SDS011;71370;-33.792;151.032;2023-08-17T03:29:02;1.80;;;0.50;;
81903;SDS011;71370;-33.792;151.032;2023-08-17T03:30:09;2.30;;;0.60;;
81903;SDS011;71370;-33.792;151.032;2023-08-17T03:31:17;2.00;;;0.80;;
81903;SDS011;71370;-33.792;151.032;2023-08-17T03:32:25;2.30;;;0.60;;
81903;SDS011;71370;-33.792;151.032;2023-08-17T03:33:32;2.20;;;0.50;;
81903;SDS011;71370;-33.792;151.032;2023-08-17T03:34:39;1.90;;;0.70;;
81903;SDS011;71370;-33.792;151.032;2023-08-17T03:35:46;2.40;;;0.60;;
81903;SDS011;71370;-33.792;151.032;2023-08-17T03:36:53;1.80;;;0.50;;
81903;SDS011;71370;-33.792;151.032;2023-08-17T03:38:00;2.30;;;0.70;;
81903;SDS011;71370;-33.792;151.032;2023-08-17T03:39:07;1.60;;;0.40;;
81903;SDS011;71370;-33.792;151.032;2023-08-17T03:40:14;1.60;;;0.40;;
81903;SDS011;71370;-33.792;151.032;2023-08-17T03:41:21;1.90;;;0.50;;
81903;SDS011;71370;-33.792;151.032;2023-08-17T03:42:31;3.10;;;1.00;;
81903;SDS011;71370;-33.792;151.032;2023-08-17T03:43:38;2.30;;;0.90;;
81903;SDS011;71370;-33.792;151.032;2023-08-17T03:44:45;3.20;;;0.70;;
81903;SDS011;71370;-33.792;151.032;2023-08-17T03:45:52;2.50;;;0.70;;
81903;SDS011;71370;-33.792;151.032;2023-08-17T03:46:59;1.40;;;0.40;;
81903;SDS011;71370;-33.792;151.032;2023-08-17T03:48:06;1.40;;;0.40;;
81903;SDS011;71370;-33.792;151.032;2023-08-17T03:49:13;2.60;;;0.60;;
81903;SDS011;71370;-33.792;151.032;2023-08-17T03:50:20;1.70;;;0.60;;
81903;SDS011;71370;-33.792;151.032;2023-08-17T03:51:27;1.50;;;0.40;;
81903;SDS011;71370;-33.792;151.032;2023-08-17T03:52:34;1.90;;;0.60;;
81903;SDS011;71370;-33.792;151.032;2023-08-17T03:53:41;2.00;;;0.70;;
81903;SDS011;71370;-33.792;151.032;2023-08-17T03:54:48;2.30;;;1.10;;
81903;SDS011;71370;-33.792;151.032;2023-08-17T03:55:54;1.70;;;0.50;;
81903;SDS011;71370;-33.792;151.032;2023-08-17T03:57:01;2.00;;;0.50;;
81903;SDS011;71370;-33.792;151.032;2023-08-17T03:58:08;2.00;;;0.60;;
81903;SDS011;71370;-33.792;151.032;2023-08-17T03:59:15;2.60;;;0.80;;
81903;SDS011;71370;-33.792;151.032;2023-08-17T04:00:22;2.50;;;0.80;;
81903;SDS011;71370;-33.792;151.032;2023-08-17T04:01:29;2.70;;;0.60;;
81903;SDS011;71370;-33.792;151.032;2023-08-17T04:02:36;1.80;;;0.40;;
81903;SDS011;71370;-33.792;151.032;2023-08-17T04:03:43;2.40;;;0.90;;
81903;SDS011;71370;-33.792;151.032;2023-08-17T04:04:50;2.20;;;0.70;;
81903;SDS011;71370;-33.792;151.032;2023-08-17T04:05:57;2.50;;;0.90;;
81903;SDS011;71370;-33.792;151.032;2023-08-17T04:07:10;2.80;;;0.80;;
81903;SDS011;71370;-33.792;151.032;2023-08-17T04:08:16;2.80;;;0.60;;
81903;SDS011;71370;-33.792;151.032;2023-08-17T04:09:23;2.20;;;1.10;;
81903;SDS011;71370;-33.792;151.032;2023-08-17T04:10:30;2.10;;;0.90;;
81903;SDS011;71370;-33.792;151.032;2023-08-17T04:11:37;2.00;;;0.40;;
81903;SDS011;71370;-33.792;151.032;2023-08-17T04:12:44;1.70;;;0.50;;
81903;SDS011;71370;-33.792;151.032;2023-08-17T04:13:51;2.00;;;0.70;;
81903;SDS011;71370;-33.792;151.032;2023-08-17T04:14:58;1.80;;;0.60;;
81903;SDS011;71370;-33.792;151.032;2023-08-17T04:16:05;2.50;;;0.50;;
81903;SDS011;71370;-33.792;151.032;2023-08-17T04:17:12;1.60;;;0.50;;
81903;SDS011;71370;-33.792;151.032;2023-08-17T04:18:19;2.00;;;0.50;;
81903;SDS011;71370;-33.792;151.032;2023-08-17T04:19:27;2.50;;;0.60;;
81903;SDS011;71370;-33.792;151.032;2023-08-17T04:20:34;2.10;;;0.70;;
81903;SDS011;71370;-33.792;151.032;2023-08-17T04:21:40;2.00;;;0.60;;
81903;SDS011;71370;-33.792;151.032;2023-08-17T04:22:47;2.30;;;0.50;;
81903;SDS011;71370;-33.792;151.032;2023-08-17T04:23:54;2.30;;;0.60;;
81903;SDS011;71370;-33.792;151.032;2023-08-17T04:25:01;2.90;;;0.70;;
81903;SDS011;71370;-33.792;151.032;2023-08-17T04:26:08;2.60;;;0.80;;
81903;SDS011;71370;-33.792;151.032;2023-08-17T04:27:15;2.30;;;1.00;;
81903;SDS011;71370;-33.792;151.032;2023-08-17T04:28:23;3.20;;;1.50;;
81903;SDS011;71370;-33.792;151.032;2023-08-17T04:29:30;1.80;;;0.60;;
81903;SDS011;71370;-33.792;151.032;2023-08-17T04:30:38;1.90;;;0.60;;
81903;SDS011;71370;-33.792;151.032;2023-08-17T04:31:45;2.80;;;0.50;;
81903;SDS011;71370;-33.792;151.032;2023-08-17T04:32:52;2.50;;;0.70;;
81903;SDS011;71370;-33.792;151.032;2023-08-17T04:33:59;4.50;;;1.00;;
81903;SDS011;71370;-33.792;151.032;2023-08-17T04:35:06;2.50;;;0.70;;
81903;SDS011;71370;-33.792;151.032;2023-08-17T04:36:13;2.20;;;0.50;;
81903;SDS011;71370;-33.792;151.032;2023-08-17T04:37:20;2.20;;;0.50;;
81903;SDS011;71370;-33.792;151.032;2023-08-17T04:38:27;2.30;;;0.70;;
81903;SDS011;71370;-33.792;151.032;2023-08-17T04:39:34;2.20;;;0.50;;
81903;SDS011;71370;-33.792;151.032;2023-08-17T04:40:41;3.30;;;0.70;;
81903;SDS011;71370;-33.792;151.032;2023-08-17T04:41:48;1.70;;;0.50;;
81903;SDS011;71370;-33.792;151.032;2023-08-17T04:42:55;2.70;;;0.50;;
81903;SDS011;71370;-33.792;151.032;2023-08-17T04:44:02;1.60;;;0.70;;
81903;SDS011;71370;-33.792;151.032;2023-08-17T04:45:09;2.00;;;0.60;;
81903;SDS011;71370;-33.792;151.032;2023-08-17T04:46:16;2.30;;;0.50;;
81903;SDS011;71370;-33.792;151.032;2023-08-17T04:47:23;1.50;;;0.50;;
81903;SDS011;71370;-33.792;151.032;2023-08-17T04:48:30;2.00;;;0.50;;
81903;SDS011;71370;-33.792;151.032;2023-08-17T04:49:37;1.80;;;0.50;;
81903;SDS011;71370;-33.792;151.032;2023-08-17T04:50:44;2.20;;;0.70;;
81903;SDS011;71370;-33.792;151.032;2023-08-17T04:51:51;2.10;;;0.40;;
81903;SDS011;71370;-33.792;151.032;2023-08-17T04:52:58;1.80;;;0.40;;
81903;SDS011;71370;-33.792;151.032;2023-08-17T04:54:05;1.40;;;0.40;;
81903;SDS011;71370;-33.792;151.032;2023-08-17T04:55:13;1.30;;;0.50;;
81903;SDS011;71370;-33.792;151.032;2023-08-17T04:56:20;1.60;;;0.50;;
81903;SDS011;71370;-33.792;151.032;2023-08-17T04:57:27;2.10;;;1.20;;
81903;SDS011;71370;-33.792;151.032;2023-08-17T04:58:34;1.90;;;0.50;;
81903;SDS011;71370;-33.792;151.032;2023-08-17T04:59:41;4.90;;;0.50;;
81903;SDS011;71370;-33.792;151.032;2023-08-17T05:00:48;3.10;;;0.80;;
81903;SDS011;71370;-33.792;151.032;2023-08-17T05:01:55;2.80;;;0.80;;
81903;SDS011;71370;-33.792;151.032;2023-08-17T05:03:02;1.90;;;0.50;;
81903;SDS011;71370;-33.792;151.032;2023-08-17T05:04:09;1.80;;;0.50;;
81903;SDS011;71370;-33.792;151.032;2023-08-17T05:05:16;2.50;;;0.50;;
81903;SDS011;71370;-33.792;151.032;2023-08-17T05:06:23;1.80;;;0.50;;
81903;SDS011;71370;-33.792;151.032;2023-08-17T05:07:30;1.80;;;0.50;;
81903;SDS011;71370;-33.792;151.032;2023-08-17T05:08:37;1.40;;;0.40;;
81903;SDS011;71370;-33.792;151.032;2023-08-17T05:09:44;2.70;;;0.70;;
81903;SDS011;71370;-33.792;151.032;2023-08-17T05:10:51;3.70;;;0.60;;
81903;SDS011;71370;-33.792;151.032;2023-08-17T05:11:58;1.70;;;0.50;;
81903;SDS011;71370;-33.792;151.032;2023-08-17T05:13:05;2.80;;;0.60;;
81903;SDS011;71370;-33.792;151.032;2023-08-17T05:14:12;1.40;;;0.40;;
81903;SDS011;71370;-33.792;151.032;2023-08-17T05:15:19;2.10;;;0.40;;
81903;SDS011;71370;-33.792;151.032;2023-08-17T05:16:26;1.60;;;0.50;;
81903;SDS011;71370;-33.792;151.032;2023-08-17T05:17:33;2.10;;;0.40;;
81903;SDS011;71370;-33.792;151.032;2023-08-17T05:18:40;2.20;;;0.70;;
81903;SDS011;71370;-33.792;151.032;2023-08-17T05:19:47;1.70;;;0.60;;
81903;SDS011;71370;-33.792;151.032;2023-08-17T05:20:54;2.00;;;0.50;;
81903;SDS011;71370;-33.792;151.032;2023-08-17T05:22:01;1.50;;;0.50;;
81903;SDS011;71370;-33.792;151.032;2023-08-17T05:23:08;1.50;;;0.50;;
81903;SDS011;71370;-33.792;151.032;2023-08-17T05:24:15;1.80;;;0.60;;
81903;SDS011;71370;-33.792;151.032;2023-08-17T05:25:22;2.20;;;0.70;;
81903;SDS011;71370;-33.792;151.032;2023-08-17T05:26:31;3.20;;;1.00;;
81903;SDS011;71370;-33.792;151.032;2023-08-17T05:27:38;1.90;;;0.70;;
81903;SDS011;71370;-33.792;151.032;2023-08-17T05:28:45;2.10;;;0.60;;
81903;SDS011;71370;-33.792;151.032;2023-08-17T05:29:52;2.40;;;1.40;;
81903;SDS011;71370;-33.792;151.032;2023-08-17T05:31:05;2.00;;;0.90;;
81903;SDS011;71370;-33.792;151.032;2023-08-17T05:32:13;1.70;;;0.50;;
81903;SDS011;71370;-33.792;151.032;2023-08-17T05:33:20;3.10;;;0.40;;
81903;SDS011;71370;-33.792;151.032;2023-08-17T05:34:27;2.60;;;0.70;;
81903;SDS011;71370;-33.792;151.032;2023-08-17T05:35:34;2.40;;;0.50;;
81903;SDS011;71370;-33.792;151.032;2023-08-17T05:36:41;2.30;;;0.60;;
81903;SDS011;71370;-33.792;151.032;2023-08-17T05:37:48;2.20;;;0.80;;
81903;SDS011;71370;-33.792;151.032;2023-08-17T05:38:55;1.60;;;0.70;;
81903;SDS011;71370;-33.792;151.032;2023-08-17T05:40:02;2.10;;;0.80;;
81903;SDS011;71370;-33.792;151.032;2023-08-17T05:41:10;1.90;;;0.70;;
81903;SDS011;71370;-33.792;151.032;2023-08-17T05:42:17;3.70;;;0.60;;
81903;SDS011;71370;-33.792;151.032;2023-08-17T05:43:24;2.60;;;2.20;;
81903;SDS011;71370;-33.792;151.032;2023-08-17T05:44:32;2.70;;;0.50;;
81903;SDS011;71370;-33.792;151.032;2023-08-17T05:45:38;1.40;;;0.60;;
81903;SDS011;71370;-33.792;151.032;2023-08-17T05:46:45;1.90;;;0.60;;
81903;SDS011;71370;-33.792;151.032;2023-08-17T05:47:54;1.90;;;1.00;;
81903;SDS011;71370;-33.792;151.032;2023-08-17T05:49:01;2.70;;;0.50;;
81903;SDS011;71370;-33.792;151.032;2023-08-17T05:50:08;2.40;;;0.60;;
81903;SDS011;71370;-33.792;151.032;2023-08-17T05:51:15;2.50;;;0.70;;
81903;SDS011;71370;-33.792;151.032;2023-08-17T05:52:22;1.50;;;0.50;;
81903;SDS011;71370;-33.792;151.032;2023-08-17T05:53:29;2.10;;;0.60;;
81903;SDS011;71370;-33.792;151.032;2023-08-17T05:54:36;2.20;;;0.70;;
81903;SDS011;71370;-33.792;151.032;2023-08-17T05:55:43;2.20;;;0.50;;
81903;SDS011;71370;-33.792;151.032;2023-08-17T05:56:50;2.60;;;0.70;;
81903;SDS011;71370;-33.792;151.032;2023-08-17T05:57:57;1.60;;;0.50;;
81903;SDS011;71370;-33.792;151.032;2023-08-17T05:59:04;2.90;;;0.40;;
81903;SDS011;71370;-33.792;151.032;2023-08-17T06:00:11;1.90;;;0.60;;
81903;SDS011;71370;-33.792;151.032;2023-08-17T06:01:19;2.30;;;0.70;;
81903;SDS011;71370;-33.792;151.032;2023-08-17T06:02:26;1.90;;;0.80;;
81903;SDS011;71370;-33.792;151.032;2023-08-17T06:03:33;2.20;;;0.90;;
81903;SDS011;71370;-33.792;151.032;2023-08-17T06:04:41;1.90;;;0.60;;
81903;SDS011;71370;-33.792;151.032;2023-08-17T06:05:48;1.50;;;0.40;;
81903;SDS011;71370;-33.792;151.032;2023-08-17T06:06:59;1.60;;;0.50;;
81903;SDS011;71370;-33.792;151.032;2023-08-17T06:08:06;1.90;;;0.60;;
81903;SDS011;71370;-33.792;151.032;2023-08-17T06:09:13;1.50;;;0.40;;
81903;SDS011;71370;-33.792;151.032;2023-08-17T06:10:20;1.70;;;0.90;;
81903;SDS011;71370;-33.792;151.032;2023-08-17T06:11:30;1.90;;;0.60;;
81903;SDS011;71370;-33.792;151.032;2023-08-17T06:12:37;1.70;;;0.60;;
81903;SDS011;71370;-33.792;151.032;2023-08-17T06:13:44;1.60;;;0.40;;
81903;SDS011;71370;-33.792;151.032;2023-08-17T06:14:51;2.20;;;0.50;;
81903;SDS011;71370;-33.792;151.032;2023-08-17T06:15:58;3.10;;;0.60;;
81903;SDS011;71370;-33.792;151.032;2023-08-17T06:17:05;2.00;;;0.50;;
81903;SDS011;71370;-33.792;151.032;2023-08-17T06:18:12;2.20;;;1.10;;
81903;SDS011;71370;-33.792;151.032;2023-08-17T06:19:19;2.30;;;0.60;;
81903;SDS011;71370;-33.792;151.032;2023-08-17T06:20:26;2.90;;;0.70;;
81903;SDS011;71370;-33.792;151.032;2023-08-17T06:21:32;3.50;;;0.70;;
81903;SDS011;71370;-33.792;151.032;2023-08-17T06:22:39;2.20;;;1.00;;
81903;SDS011;71370;-33.792;151.032;2023-08-17T06:23:46;2.00;;;0.80;;
81903;SDS011;71370;-33.792;151.032;2023-08-17T06:24:53;2.30;;;0.70;;
81903;SDS011;71370;-33.792;151.032;2023-08-17T06:26:00;2.20;;;0.50;;
81903;SDS011;71370;-33.792;151.032;2023-08-17T06:27:07;2.30;;;0.60;;
81903;SDS011;71370;-33.792;151.032;2023-08-17T06:28:14;2.40;;;0.70;;
81903;SDS011;71370;-33.792;151.032;2023-08-17T06:29:21;1.90;;;0.70;;
81903;SDS011;71370;-33.792;151.032;2023-08-17T06:30:28;3.20;;;0.50;;
81903;SDS011;71370;-33.792;151.032;2023-08-17T06:31:35;3.80;;;0.70;;
81903;SDS011;71370;-33.792;151.032;2023-08-17T06:32:41;2.30;;;0.80;;